Time;durP1;ratioP1;P1;durP2;ratioP2;P2;SDS_P1;SDS_P2;PMS_P1;PMS_P2;Temp;Humidity;BMP_temperature;BMP_pressure;BME280_temperature;BME280_humidity;BME280_pressure;Samples;Min_cycle;Max_cycle;Signal;HPM_P1;HPM_P2
2023/04/21 03:59:40;;;;;;;12.18;4.87;;;;;;;8.73;97.18;100398.19;5290832;33;20118;-86
2023/04/21 04:02:43;;;;;;;14.00;4.75;;;;;;;8.73;97.58;100400.84;5296709;33;34188;-90
2023/04/21 04:05:46;;;;;;;7.65;4.22;;;;;;;8.72;97.31;100396.50;5292477;33;34797;-89
2023/04/21 04:08:49;;;;;;;9.20;5.00;;;;;;;8.74;96.45;100399.84;5290529;33;33746;-90
2023/04/21 04:11:52;;;;;;;9.55;5.25;;;;;;;8.76;100.00;100407.75;5290994;33;33335;-87
2023/04/21 04:14:54;;;;;;;9.05;5.82;;;;;;;8.71;98.89;100404.72;5278300;33;33307;-87
2023/04/21 04:17:57;;;;;;;12.88;6.30;;;;;;;8.79;98.27;100410.94;5289569;33;33990;-87
2023/04/21 04:21:06;;;;;;;16.12;6.82;;;;;;;8.77;97.96;100415.63;5291111;33;34034;-86
2023/04/21 04:24:10;;;;;;;20.42;9.52;;;;;;;8.78;97.60;100417.31;5290938;33;34158;-87
2023/04/21 04:27:13;;;;;;;18.92;9.57;;;;;;;8.80;97.69;100415.31;5290090;33;34279;-86
2023/04/21 04:30:15;;;;;;;22.50;9.52;;;;;;;8.85;98.12;100418.31;5278616;33;33440;-86
2023/04/21 04:33:18;;;;;;;19.75;8.50;;;;;;;8.93;100.00;100425.56;5291137;33;33464;-87
2023/04/21 04:36:23;;;;;;;16.62;8.25;;;;;;;9.02;100.00;100434.47;5289433;33;34100;-86
2023/04/21 04:39:26;;;;;;;20.35;7.45;;;;;;;9.19;98.29;100422.72;5290285;33;34145;-87
2023/04/21 04:42:28;;;;;;;9.55;6.35;;;;;;;9.39;99.11;100430.44;5289271;33;33041;-86
2023/04/21 04:45:32;;;;;;;11.82;5.00;;;;;;;9.51;100.00;100426.41;5290051;33;33012;-87
2023/04/21 04:48:34;;;;;;;9.95;5.50;;;;;;;9.70;97.07;100431.41;5291018;33;33489;-86
2023/04/21 04:51:37;;;;;;;10.38;4.80;;;;;;;9.90;91.74;100431.03;5306402;33;34775;-87
2023/04/21 04:54:40;;;;;;;7.40;4.05;;;;;;;10.12;89.33;100432.12;5284525;33;34931;-87
2023/04/21 04:57:42;;;;;;;9.27;4.85;;;;;;;10.31;86.10;100436.31;5290802;33;33611;-86
2023/04/21 05:00:46;;;;;;;10.02;4.72;;;;;;;10.44;84.87;100433.87;5289684;33;33320;-86
2023/04/21 05:03:48;;;;;;;12.93;4.62;;;;;;;10.64;82.02;100427.03;5278311;33;33277;-89
2023/04/21 05:06:51;;;;;;;9.73;4.20;;;;;;;10.81;80.72;100425.09;5289690;33;34136;-87
2023/04/21 05:09:54;;;;;;;6.37;3.90;;;;;;;10.96;80.78;100433.25;5289739;33;34120;-87
2023/04/21 05:12:57;;;;;;;8.10;4.25;;;;;;;11.01;79.16;100428.16;5267201;33;33302;-87
2023/04/21 05:16:03;;;;;;;8.02;4.37;;;;;;;11.19;78.20;100418.94;5290004;33;33420;-87
2023/04/21 05:19:06;;;;;;;12.85;4.70;;;;;;;11.37;76.19;100422.16;5278215;33;33271;-87
2023/04/21 05:22:09;;;;;;;6.80;4.10;;;;;;;11.52;74.83;100430.25;5289559;33;34103;-87
2023/04/21 05:25:16;;;;;;;8.02;4.45;;;;;;;11.55;73.47;100414.59;5288769;33;33036;-87
2023/04/21 05:28:19;;;;;;;9.13;3.60;;;;;;;11.75;73.67;100422.12;5291070;33;33501;-87
2023/04/21 05:31:23;;;;;;;9.80;3.83;;;;;;;11.86;71.44;100423.56;5278660;33;33831;-87
2023/04/21 05:34:26;;;;;;;9.32;3.95;;;;;;;12.06;71.28;100423.84;5291428;33;33307;-87
2023/04/21 05:37:29;;;;;;;11.30;4.18;;;;;;;12.35;70.56;100417.59;5304237;33;33499;-87
2023/04/21 05:40:31;;;;;;;10.07;4.47;;;;;;;12.49;68.10;100424.84;5296322;33;34788;-88
2023/04/21 05:43:35;;;;;;;11.50;4.62;;;;;;;12.65;67.26;100431.88;5290507;33;34892;-87
2023/04/21 05:46:37;;;;;;;15.13;4.50;;;;;;;12.75;65.66;100432.41;5290543;33;33351;-87
2023/04/21 05:49:41;;;;;;;7.25;4.45;;;;;;;12.99;65.38;100428.50;5294580;33;34780;-87
2023/04/21 05:52:43;;;;;;;11.52;4.12;;;;;;;13.05;63.88;100435.03;5295944;33;34797;-87
2023/04/21 05:55:46;;;;;;;11.98;4.20;;;;;;;13.37;62.46;100433.69;5307539;33;35054;-87
2023/04/21 05:58:50;;;;;;;5.32;3.97;;;;;;;13.47;61.74;100433.34;5279435;33;33551;-86
2023/04/21 06:01:52;;;;;;;9.88;4.05;;;;;;;13.76;59.92;100430.44;5290137;33;33440;-87
2023/04/21 06:04:55;;;;;;;7.40;4.25;;;;;;;13.51;57.31;100427.37;5289505;33;33123;-87
2023/04/21 06:07:59;;;;;;;10.13;3.53;;;;;;;13.71;56.96;100432.06;5289545;33;34012;-87
2023/04/21 06:11:02;;;;;;;6.87;3.80;;;;;;;13.79;55.27;100434.63;5289013;33;33315;-87
2023/04/21 06:14:04;;;;;;;11.68;4.30;;;;;;;13.93;55.32;100439.09;5288278;33;33320;-87
2023/04/21 06:17:07;;;;;;;9.82;3.85;;;;;;;13.90;55.17;100441.38;5288997;33;33456;-87
2023/04/21 06:20:11;;;;;;;9.88;3.72;;;;;;;13.87;54.75;100436.38;5277710;33;34431;-90
2023/04/21 06:23:14;;;;;;;7.62;3.55;;;;;;;14.15;53.55;100447.13;5300536;33;33613;-91
2023/04/21 06:26:16;;;;;;;9.27;3.65;;;;;;;14.23;53.57;100441.56;5290121;33;33139;-90
2023/04/21 06:29:20;;;;;;;10.55;4.18;;;;;;;14.29;53.53;100438.88;5277684;33;33914;-91
2023/04/21 06:32:22;;;;;;;7.60;3.67;;;;;;;14.46;51.68;100438.56;5289230;33;33393;-88
2023/04/21 06:35:25;;;;;;;8.55;3.70;;;;;;;14.83;51.24;100444.53;5288923;33;33420;-88
2023/04/21 06:38:28;;;;;;;9.45;3.60;;;;;;;14.86;50.70;100436.00;5291670;33;34081;-87
2023/04/21 06:41:31;;;;;;;9.15;3.70;;;;;;;14.89;50.64;100430.19;5279786;33;33247;-87
2023/04/21 06:44:34;;;;;;;10.07;3.60;;;;;;;15.03;50.49;100425.62;5291207;33;34447;-88
2023/04/21 06:47:37;;;;;;;6.60;3.22;;;;;;;15.14;49.37;100431.28;5279636;33;33613;-87
2023/04/21 06:50:40;;;;;;;11.57;3.70;;;;;;;15.33;49.58;100431.53;5279723;33;33669;-88
2023/04/21 06:53:43;;;;;;;10.25;3.65;;;;;;;15.10;49.02;100435.44;5291298;33;35115;-88
2023/04/21 06:56:45;;;;;;;13.23;3.75;;;;;;;15.23;49.94;100431.06;5291000;33;32913;-88
2023/04/21 06:59:48;;;;;;;5.87;3.40;;;;;;;15.16;48.20;100431.91;5282272;33;33699;-87
2023/04/21 07:02:51;;;;;;;9.70;3.70;;;;;;;14.98;49.15;100430.84;5293276;33;33464;-87
2023/04/21 07:05:54;;;;;;;11.57;3.40;;;;;;;15.26;50.41;100425.22;5291242;33;34600;-87
2023/04/21 07:08:57;;;;;;;9.48;3.12;;;;;;;15.35;49.24;100424.81;5290632;33;32939;-88
2023/04/21 07:12:01;;;;;;;10.43;3.37;;;;;;;15.54;48.20;100415.03;5278470;33;33411;-88
2023/04/21 07:15:05;;;;;;;9.05;3.05;;;;;;;15.55;47.64;100422.09;5291736;33;33292;-87
2023/04/21 07:18:08;;;;;;;10.65;3.17;;;;;;;15.93;46.89;100423.34;5305557;33;33464;-87
2023/04/21 07:21:11;;;;;;;6.30;3.35;;;;;;;15.74;47.23;100427.78;5306554;33;34778;-87
2023/04/21 07:24:13;;;;;;;7.03;3.37;;;;;;;16.03;47.72;100416.44;5293598;33;33714;-87
2023/04/21 07:27:18;;;;;;;9.18;3.47;;;;;;;16.41;46.90;100413.00;5285301;33;34299;-87
2023/04/21 07:30:21;;;;;;;8.70;2.92;;;;;;;16.23;46.31;100424.56;5294265;33;33637;-88
2023/04/21 07:33:24;;;;;;;5.85;3.05;;;;;;;15.99;46.01;100415.19;5308777;33;34953;-88
2023/04/21 07:36:27;;;;;;;6.68;3.22;;;;;;;16.24;45.65;100417.22;5301623;33;34910;-88
2023/04/21 07:39:32;;;;;;;9.27;3.40;;;;;;;16.24;45.35;100411.78;5280074;33;33600;-87
2023/04/21 07:42:35;;;;;;;9.77;3.53;;;;;;;16.22;45.60;100412.00;5282007;33;33026;-87
2023/04/21 07:45:38;;;;;;;8.18;2.67;;;;;;;16.61;45.34;100407.44;5296880;33;33724;-87
2023/04/21 07:48:41;;;;;;;9.65;2.78;;;;;;;16.85;44.70;100408.62;5296016;33;33000;-87
2023/04/21 07:51:44;;;;;;;6.35;2.72;;;;;;;16.88;42.49;100408.19;5294988;33;31920;-88
2023/04/21 07:54:47;;;;;;;7.97;3.08;;;;;;;16.61;42.48;100412.88;5289171;33;33400;-87
2023/04/21 07:57:50;;;;;;;4.85;2.58;;;;;;;16.90;43.37;100414.22;5295677;33;32201;-87
2023/04/21 08:00:53;;;;;;;9.90;3.25;;;;;;;16.80;44.03;100408.44;5278784;33;33109;-87
2023/04/21 08:03:56;;;;;;;9.20;2.90;;;;;;;16.98;43.03;100416.69;5289878;33;33093;-87
2023/04/21 08:06:59;;;;;;;6.80;2.80;;;;;;;17.03;42.60;100418.75;5290123;33;33743;-88
2023/04/21 08:10:04;;;;;;;10.43;2.90;;;;;;;16.86;41.85;100415.72;5277289;33;33612;-87
2023/04/21 08:13:07;;;;;;;10.45;2.87;;;;;;;16.88;41.99;100404.62;5289501;33;33135;-87
2023/04/21 08:16:10;;;;;;;10.95;3.17;;;;;;;17.08;41.90;100418.06;5289044;33;33155;-87
2023/04/21 08:19:12;;;;;;;5.12;2.78;;;;;;;17.20;42.09;100408.19;5289589;33;33313;-88
2023/04/21 08:22:16;;;;;;;7.50;3.00;;;;;;;17.43;41.06;100402.97;5277526;33;33417;-87
2023/04/21 08:25:18;;;;;;;8.52;3.28;;;;;;;17.34;40.74;100411.62;5289913;33;33348;-87
2023/04/21 08:28:21;;;;;;;14.02;3.35;;;;;;;17.60;40.66;100399.66;5277535;33;33041;-87
2023/04/21 08:31:24;;;;;;;9.05;2.80;;;;;;;17.54;41.28;100393.22;5290951;33;33633;-87
2023/04/21 08:34:27;;;;;;;6.43;3.28;;;;;;;17.57;40.62;100405.56;5289963;33;33336;-87
2023/04/21 08:37:30;;;;;;;8.02;3.30;;;;;;;17.80;40.63;100396.78;5278222;33;32899;-87
2023/04/21 08:40:36;;;;;;;8.30;2.90;;;;;;;17.75;38.71;100402.87;5290306;33;34031;-87
2023/04/21 08:43:39;;;;;;;7.53;3.17;;;;;;;17.81;37.88;100396.59;5289310;33;34931;-91
2023/04/21 08:46:46;;;;;;;16.75;3.80;;;;;;;17.51;39.65;100392.84;5278513;33;33722;-91
2023/04/21 08:49:50;;;;;;;9.75;3.25;;;;;;;17.97;39.97;100394.31;5292906;33;34971;-87
2023/04/21 08:52:54;;;;;;;6.03;3.15;;;;;;;18.21;37.69;100396.13;5276603;33;34409;-87
2023/04/21 08:55:57;;;;;;;14.63;3.92;;;;;;;18.25;37.85;100401.94;5288010;33;34642;-87
2023/04/21 08:59:12;;;;;;;6.93;3.50;;;;;;;18.23;37.82;100382.28;5278306;33;33381;-87
2023/04/21 09:02:17;;;;;;;7.72;3.85;;;;;;;18.68;38.33;100376.44;5277299;33;34255;-87
2023/04/21 09:05:23;;;;;;;7.72;3.40;;;;;;;18.55;37.13;100374.75;5301647;33;33309;-87
2023/04/21 09:08:29;;;;;;;8.35;3.70;;;;;;;18.53;39.28;100385.87;5283322;33;33259;-87
2023/04/21 09:11:33;;;;;;;8.68;3.67;;;;;;;18.99;36.18;100378.97;5298199;33;33269;-87
2023/04/21 09:14:36;;;;;;;4.95;3.75;;;;;;;19.22;36.68;100374.62;5306999;33;33210;-87
2023/04/21 09:17:39;;;;;;;9.20;3.58;;;;;;;19.41;35.83;100384.38;5294824;33;33196;-87
2023/04/21 09:20:43;;;;;;;6.45;3.90;;;;;;;18.78;37.31;100384.97;5308561;33;32910;-87
2023/04/21 09:23:51;;;;;;;8.57;4.22;;;;;;;18.40;36.51;100380.59;5306932;33;34809;-87
2023/04/21 09:26:53;;;;;;;7.90;3.58;;;;;;;18.71;37.01;100374.09;5277356;33;33322;-87
2023/04/21 09:30:06;;;;;;;6.10;3.33;;;;;;;18.22;37.12;100384.19;5276483;33;33555;-87
2023/04/21 09:33:18;;;;;;;10.43;4.25;;;;;;;18.39;37.53;100370.75;5288301;33;33517;-87
2023/04/21 09:36:32;;;;;;;6.32;3.83;;;;;;;18.23;38.59;100376.84;5288005;33;33302;-87
2023/04/21 09:39:35;;;;;;;9.45;4.15;;;;;;;18.53;37.71;100361.34;5288820;33;33531;-87
2023/04/21 09:42:55;;;;;;;5.90;3.75;;;;;;;18.50;36.72;100360.97;5297101;33;34415;-87
2023/04/21 09:46:00;;;;;;;6.10;4.10;;;;;;;18.54;37.23;100359.44;5288406;33;34060;-87
2023/04/21 09:49:04;;;;;;;6.45;4.00;;;;;;;18.29;38.97;100362.28;5290534;33;32828;-87
2023/04/21 09:52:07;;;;;;;9.30;4.10;;;;;;;18.39;37.29;100351.66;5289597;33;33049;-86
2023/04/21 09:55:27;;;;;;;5.32;4.05;;;;;;;18.75;37.56;100352.69;5290685;33;33382;-86
2023/04/21 09:58:36;;;;;;;6.65;4.03;;;;;;;19.30;36.74;100332.50;5297435;33;33699;-91
2023/04/21 10:01:39;;;;;;;;;;;;;;;19.60;36.78;100343.31;5295263;33;34384;-87
2023/04/21 10:04:42;;;;;;;6.50;3.92;;;;;;;19.44;36.24;100340.22;5307582;33;35572;-88
2023/04/21 10:07:47;;;;;;;7.43;4.25;;;;;;;19.00;37.22;100330.69;5297027;33;34745;-87
2023/04/21 10:10:51;;;;;;;5.90;3.87;;;;;;;19.45;38.49;100328.22;5290078;33;34506;-87
2023/04/21 10:13:54;;;;;;;13.75;4.20;;;;;;;19.22;36.94;100333.69;5279125;33;34143;-87
2023/04/21 10:17:05;;;;;;;7.28;4.35;;;;;;;19.17;37.01;100323.47;5291450;33;33917;-87
2023/04/21 10:20:08;;;;;;;5.68;4.05;;;;;;;18.97;36.71;100331.16;5291110;33;33368;-87
2023/04/21 10:23:25;;;;;;;8.23;4.70;;;;;;;18.94;38.00;100331.63;5293814;33;33113;-87
2023/04/21 10:26:34;;;;;;;6.37;4.10;;;;;;;19.73;37.68;100320.41;5288946;33;32997;-87
2023/04/21 10:29:38;;;;;;;8.50;4.90;;;;;;;19.97;35.96;100318.44;5287877;33;33058;-86
2023/04/21 10:33:04;;;;;;;7.05;4.15;;;;;;;19.79;35.26;100322.16;5288473;33;34120;-85
2023/04/21 10:36:11;;;;;;;7.53;4.62;;;;;;;19.81;36.04;100322.78;5288334;33;34225;-85
2023/04/21 10:39:41;;;;;;;9.30;4.43;;;;;;;19.55;36.10;100326.81;5275437;33;32904;-85
2023/04/21 10:42:47;;;;;;;6.78;4.40;;;;;;;19.99;35.41;100324.53;5288797;33;34185;-85
2023/04/21 10:45:50;;;;;;;8.25;4.37;;;;;;;20.45;34.94;100309.03;5288676;33;33532;-85
2023/04/21 10:48:53;;;;;;;6.43;4.57;;;;;;;20.84;35.23;100305.37;5279027;33;33397;-85
2023/04/21 10:51:59;;;;;;;7.15;4.57;;;;;;;20.82;33.98;100298.50;5279012;33;309406;-87
2023/04/21 10:55:06;;;;;;;5.93;4.53;;;;;;;20.88;34.14;100311.19;5286692;33;33378;-87
2023/04/21 10:58:09;;;;;;;6.05;3.60;;;;;;;20.56;34.96;100297.22;5286137;33;34122;-88
2023/04/21 11:01:12;;;;;;;7.97;4.37;;;;;;;21.01;33.25;100297.19;5286978;33;34487;-92
2023/04/21 11:04:15;;;;;;;6.10;4.35;;;;;;;21.95;34.35;100290.06;5275242;33;33224;-91
2023/04/21 11:07:21;;;;;;;8.43;4.10;;;;;;;22.83;30.73;100296.25;5267352;33;36956;-91
2023/04/21 11:10:24;;;;;;;5.97;3.90;;;;;;;21.97;30.97;100293.41;5293610;33;33312;-88
2023/04/21 11:13:33;;;;;;;8.52;4.35;;;;;;;22.26;31.58;100287.69;5300664;33;33409;-87
2023/04/21 11:16:36;;;;;;;6.97;4.18;;;;;;;22.02;31.58;100293.44;5293815;33;34930;-87
2023/04/21 11:19:40;;;;;;;10.15;4.00;;;;;;;21.78;32.29;100283.81;5290484;33;33143;-87
2023/04/21 11:22:43;;;;;;;7.53;4.40;;;;;;;21.17;32.12;100275.53;5288492;33;33959;-87
2023/04/21 11:25:46;;;;;;;10.63;4.68;;;;;;;20.86;32.87;100286.00;5277463;33;33165;-87
2023/04/21 11:28:52;;;;;;;9.27;4.72;;;;;;;20.39;34.71;100283.50;5288392;33;33090;-87
2023/04/21 11:31:55;;;;;;;8.75;4.05;;;;;;;20.02;34.13;100283.03;5288675;33;33268;-86
2023/04/21 11:34:57;;;;;;;7.15;3.90;;;;;;;19.83;35.41;100283.22;5287648;33;33285;-86
2023/04/21 11:38:04;;;;;;;7.25;4.57;;;;;;;19.66;35.27;100277.66;5289873;33;33752;-86
2023/04/21 11:41:09;;;;;;;5.05;4.32;;;;;;;19.41;35.65;100269.69;5288959;33;33274;-87
2023/04/21 11:44:29;;;;;;;6.62;4.22;;;;;;;19.23;35.96;100276.12;5290503;33;34018;-87
2023/04/21 11:47:32;;;;;;;6.72;4.30;;;;;;;19.62;36.17;100270.97;5290151;33;34399;-87
2023/04/21 11:50:37;;;;;;;9.43;4.40;;;;;;;19.71;36.76;100268.72;5288849;33;32927;-87
2023/04/21 11:53:40;;;;;;;6.85;3.80;;;;;;;20.05;35.08;100272.44;5289273;33;34602;-87
2023/04/21 11:56:47;;;;;;;7.25;3.85;;;;;;;21.38;33.56;100263.84;5290037;33;32838;-86
2023/04/21 11:59:50;;;;;;;5.43;4.10;;;;;;;24.74;31.36;100258.44;5276848;33;34034;-86
2023/04/21 12:02:57;;;;;;;9.88;3.75;;;;;;;24.74;27.96;100260.38;5288529;33;34069;-87
2023/04/21 12:06:00;;;;;;;5.72;3.75;;;;;;;25.25;26.66;100257.63;5289036;33;33365;-87
2023/04/21 12:09:03;;;;;;;6.43;4.00;;;;;;;25.31;26.60;100249.06;5288058;33;33368;-87
2023/04/21 12:12:07;;;;;;;11.98;4.37;;;;;;;24.91;27.99;100249.09;5289092;33;33343;-87
2023/04/21 12:15:15;;;;;;;7.95;3.78;;;;;;;24.31;28.97;100252.31;5293108;33;34074;-87
2023/04/21 12:18:18;;;;;;;5.82;3.92;;;;;;;24.78;29.25;100250.47;5277101;33;33342;-87
2023/04/21 12:21:29;;;;;;;7.62;3.83;;;;;;;23.76;29.22;100240.87;5288131;33;33273;-87
2023/04/21 12:24:32;;;;;;;7.20;4.37;;;;;;;22.91;29.67;100245.53;5289825;33;33015;-87
2023/04/21 12:27:47;;;;;;;4.72;3.95;;;;;;;21.98;30.68;100244.88;5276063;33;33037;-86
2023/04/21 12:30:55;;;;;;;5.85;4.18;;;;;;;21.68;32.52;100243.44;5289446;33;34323;-91
2023/04/21 12:34:12;;;;;;;6.70;4.20;;;;;;;21.22;31.93;100237.28;5293611;33;34577;-88
2023/04/21 12:37:18;;;;;;;8.60;4.20;;;;;;;21.09;33.60;100243.94;5285469;33;33958;-88
2023/04/21 12:40:21;;;;;;;7.47;4.37;;;;;;;20.86;32.94;100238.66;5302206;33;34066;-87
2023/04/21 12:43:25;;;;;;;7.15;4.50;;;;;;;20.34;33.56;100236.91;5305241;33;34741;-87
2023/04/21 12:46:29;;;;;;;7.30;4.22;;;;;;;20.26;34.13;100235.41;5286310;33;34358;-87
2023/04/21 12:49:34;;;;;;;10.18;4.53;;;;;;;20.10;34.99;100233.47;5296488;33;33623;-87
2023/04/21 12:52:37;;;;;;;6.80;4.12;;;;;;;19.86;35.23;100235.44;5286273;33;33271;-87
2023/04/21 12:55:40;;;;;;;5.30;4.40;;;;;;;19.67;35.65;100237.53;5293980;33;34013;-87
2023/04/21 12:58:59;;;;;;;6.03;4.40;;;;;;;19.50;35.41;100231.94;5295016;33;33385;-86
2023/04/21 13:02:02;;;;;;;6.32;3.85;;;;;;;19.79;34.82;100226.56;5284878;33;33098;-87
2023/04/21 13:05:06;;;;;;;6.85;4.03;;;;;;;20.02;34.43;100234.66;5292484;33;34461;-87
2023/04/21 13:08:09;;;;;;;7.62;4.18;;;;;;;19.65;34.34;100229.56;5286427;33;33657;-87
2023/04/21 13:11:12;;;;;;;7.10;4.10;;;;;;;19.70;34.37;100228.84;5307035;33;33561;-87
2023/04/21 13:14:17;;;;;;;8.55;3.90;;;;;;;19.70;34.71;100226.94;5306674;33;34714;-87
2023/04/21 13:17:19;;;;;;;4.95;4.45;;;;;;;19.80;35.52;100218.12;5303995;33;34771;-87
2023/04/21 13:20:23;;;;;;;6.20;3.90;;;;;;;19.48;35.17;100214.97;5279596;33;33338;-87
2023/04/21 13:23:25;;;;;;;7.72;4.15;;;;;;;19.51;36.22;100221.84;5288799;33;34114;-87
2023/04/21 13:26:32;;;;;;;6.30;4.12;;;;;;;19.30;35.53;100224.13;5290113;33;33307;-87
2023/04/21 13:29:36;;;;;;;8.98;4.20;;;;;;;19.17;35.37;100219.75;5294593;33;33107;-86
2023/04/21 13:32:41;;;;;;;8.23;3.97;;;;;;;19.12;35.59;100216.91;5295725;33;34683;-87
2023/04/21 13:35:44;;;;;;;7.18;4.37;;;;;;;19.17;35.61;100211.56;5294537;33;33762;-88
2023/04/21 13:38:47;;;;;;;4.90;4.00;;;;;;;19.37;36.00;100210.37;5293551;33;33264;-87
2023/04/21 13:41:50;;;;;;;8.52;4.20;;;;;;;19.72;34.97;100221.25;5293427;33;34191;-86
2023/04/21 13:44:56;;;;;;;6.53;4.20;;;;;;;19.83;34.85;100214.06;5295009;33;33158;-86
2023/04/21 13:47:59;;;;;;;7.22;4.30;;;;;;;20.04;34.89;100207.13;5294258;33;33481;-87
2023/04/21 13:51:03;;;;;;;12.52;4.35;;;;;;;20.29;34.54;100210.28;5282244;33;33515;-87
2023/04/21 13:54:06;;;;;;;6.87;4.30;;;;;;;20.59;33.90;100201.00;5293932;33;34541;-87
2023/04/21 13:57:09;;;;;;;10.27;4.75;;;;;;;20.64;33.50;100201.06;5292958;33;32938;-87
2023/04/21 14:00:13;;;;;;;6.28;3.90;;;;;;;20.79;33.59;100198.56;5282746;33;32887;-87
2023/04/21 14:03:18;;;;;;;10.85;4.00;;;;;;;20.64;34.14;100195.59;5288855;33;34402;-87
2023/04/21 14:06:21;;;;;;;5.57;4.00;;;;;;;20.88;33.05;100196.25;5301902;33;34237;-87
2023/04/21 14:09:25;;;;;;;9.93;4.30;;;;;;;20.80;33.37;100191.22;5299799;33;34915;-87
2023/04/21 14:12:28;;;;;;;7.78;4.03;;;;;;;20.72;33.13;100186.16;5294381;33;33426;-89
2023/04/21 14:15:35;;;;;;;5.75;4.03;;;;;;;20.82;32.91;100187.13;5295166;33;34291;-92
2023/04/21 14:18:43;;;;;;;7.97;4.20;;;;;;;21.11;33.80;100187.00;5296138;33;34174;-88
2023/04/21 14:21:46;;;;;;;6.93;4.15;;;;;;;21.46;32.72;100175.75;5293749;33;34148;-88
2023/04/21 14:24:49;;;;;;;6.90;4.20;;;;;;;21.51;32.26;100166.78;5279691;33;33936;-88
2023/04/21 14:27:53;;;;;;;6.87;3.80;;;;;;;21.50;32.11;100170.59;5292825;33;32966;-88
2023/04/21 14:30:57;;;;;;;7.72;4.05;;;;;;;21.58;32.31;100175.59;5286304;33;34051;-88
2023/04/21 14:34:00;;;;;;;9.50;3.90;;;;;;;21.05;32.21;100171.59;5295118;33;32228;-87
2023/04/21 14:37:03;;;;;;;6.05;4.37;;;;;;;21.36;32.28;100175.63;5277628;33;34467;-88
2023/04/21 14:40:07;;;;;;;6.47;4.10;;;;;;;20.96;32.44;100162.16;5276701;33;35001;-87
2023/04/21 14:43:10;;;;;;;7.72;4.35;;;;;;;21.04;32.60;100165.31;5294282;33;34846;-87
2023/04/21 14:46:13;;;;;;;7.12;3.97;;;;;;;20.80;32.21;100164.69;5294092;33;32873;-87
2023/04/21 14:49:17;;;;;;;5.82;3.75;;;;;;;21.02;33.30;100161.97;5294218;33;33252;-87
2023/04/21 14:52:20;;;;;;;5.57;3.70;;;;;;;21.10;32.25;100159.91;5274181;33;32986;-87
2023/04/21 14:55:22;;;;;;;5.60;3.78;;;;;;;20.98;33.87;100162.75;5290824;33;33295;-87
2023/04/21 14:58:25;;;;;;;5.85;4.03;;;;;;;20.53;33.13;100161.81;5300897;33;33700;-87
2023/04/21 15:01:29;;;;;;;8.45;4.30;;;;;;;20.39;33.24;100154.97;5278418;33;34115;-88
2023/04/21 15:04:32;;;;;;;8.98;4.32;;;;;;;19.98;33.68;100156.16;5291002;33;33428;-88
2023/04/21 15:07:35;;;;;;;10.38;4.65;;;;;;;19.84;34.13;100159.19;5293796;33;33282;-87
2023/04/21 15:10:40;;;;;;;5.90;4.12;;;;;;;19.56;35.16;100151.78;5298516;33;33771;-86
2023/04/21 15:13:43;;;;;;;9.13;4.55;;;;;;;19.53;35.38;100145.97;5299115;33;33488;-86
2023/04/21 15:16:46;;;;;;;7.05;4.55;;;;;;;19.24;35.11;100148.66;5294604;33;33460;-87
2023/04/21 15:19:49;;;;;;;7.05;4.00;;;;;;;19.09;35.41;100140.97;5304456;33;33074;-86
2023/04/21 15:22:54;;;;;;;7.28;4.40;;;;;;;19.08;36.16;100138.50;5303147;33;34312;-87
2023/04/21 15:25:57;;;;;;;6.62;4.43;;;;;;;18.85;36.64;100139.34;5285702;33;34283;-86
2023/04/21 15:29:00;;;;;;;7.40;4.45;;;;;;;18.84;35.20;100143.13;5299268;33;33529;-86
2023/04/21 15:32:03;;;;;;;9.20;4.22;;;;;;;18.78;35.23;100143.03;5285944;33;34960;-86
2023/04/21 15:35:06;;;;;;;6.18;4.45;;;;;;;18.47;35.92;100136.00;5293152;33;32996;-86
2023/04/21 15:38:11;;;;;;;7.37;4.82;;;;;;;18.43;35.95;100144.84;5301118;33;33404;-86
2023/04/21 15:41:16;;;;;;;7.03;4.60;;;;;;;18.40;35.69;100139.88;5290222;33;33495;-87
2023/04/21 15:44:19;;;;;;;6.40;4.12;;;;;;;18.33;38.12;100137.28;5291285;33;33430;-87
2023/04/21 15:47:23;;;;;;;11.70;4.32;;;;;;;18.23;36.05;100135.13;5300862;33;32367;-87
2023/04/21 15:50:30;;;;;;;9.95;4.68;;;;;;;18.24;35.91;100136.78;5287278;33;31926;-87
2023/04/21 15:53:34;;;;;;;6.45;4.72;;;;;;;18.26;36.10;100125.66;5294479;33;34426;-87
2023/04/21 15:56:38;;;;;;;6.85;4.28;;;;;;;18.26;36.67;100128.37;5294885;33;33733;-87
